KALO

Waterloo Regional Airport

Waterloo, Iowa, USA
METAR KALO 150254Z AUTO 08003KT 6SM BR CLR 22/22 A2991 RMK AO2 SLP125 T02220217 53002
Observed Flight Rules
Aug-15 @ 02:54 UTC (41 minutes ago) Visual Flight Rules
Wind Visibility Clouds Conditions
80° at 3 knots 6 miles
  • Clear skies
  • Mist
Temperatures Readings
Current 22°C / 72°F
Dewpoint 22°C / 72°F
Humidity 100%
Altimeter 29.91" Hg
Pressure 1012.5 hPa
Elevation 264
METAR KALO 150254Z AUTO 08003KT 6SM BR CLR 22/22 A2991 RMK AO2 SLP125 T02220217 53002
Observed Flight Rules
Aug-15 @ 02:54 UTC
(41 minutes ago)
VFR
Wind Visibility
80° at 3 knots 6 miles
Clouds
  • Clear skies
Conditions
  • Mist
Temperature Dewpoint
22°C / 72°F 22°C / 72°F
Humidity Altimeter Pressure
100% 29.91" Hg 1012.5 hPa